Time;durP1;ratioP1;P1;durP2;ratioP2;P2;SDS_P1;SDS_P2;PMS_P1;PMS_P2;Temp;Humidity;BMP_temperature;BMP_pressure;BME280_temperature;BME280_humidity;BME280_pressure;Samples;Min_cycle;Max_cycle;Signal;HPM_P1;HPM_P2
2023/11/28 00:00:33;;;;;;;2.10;1.00;;;17.30;45.10;;;;;;5073163;28;20183;-59
2023/11/28 00:03:00;;;;;;;2.17;0.95;;;17.30;44.50;;;;;;5072959;28;20566;-61
2023/11/28 00:05:27;;;;;;;2.10;0.93;;;17.30;44.50;;;;;;5073123;28;20270;-60
2023/11/28 00:07:54;;;;;;;2.60;0.90;;;17.30;44.50;;;;;;5073326;28;20250;-61
2023/11/28 00:10:22;;;;;;;2.38;0.93;;;17.30;44.40;;;;;;5073286;28;20591;-62
2023/11/28 00:12:49;;;;;;;2.17;1.00;;;17.30;45.10;;;;;;5073269;28;20202;-60
2023/11/28 00:15:16;;;;;;;0.90;0.70;;;17.30;44.40;;;;;;5073442;28;20217;-61
2023/11/28 00:17:43;;;;;;;2.03;1.08;;;17.30;44.40;;;;;;5072762;28;20201;-60
2023/11/28 00:20:11;;;;;;;2.15;0.93;;;17.30;44.40;;;;;;5072719;28;20215;-61
2023/11/28 00:22:38;;;;;;;1.33;0.93;;;17.30;44.40;;;;;;5073177;28;20284;-62
2023/11/28 00:25:06;;;;;;;1.70;0.75;;;17.30;44.40;;;;;;5073297;28;20215;-59
2023/11/28 00:27:35;;;;;;;3.00;1.00;;;17.20;44.30;;;;;;5072789;28;20211;-59
2023/11/28 00:30:02;;;;;;;1.77;0.82;;;17.20;44.90;;;;;;5073414;28;20218;-61
2023/11/28 00:32:30;;;;;;;1.30;0.90;;;17.20;44.30;;;;;;5072937;28;20190;-57
2023/11/28 00:34:56;;;;;;;1.42;0.80;;;17.20;44.20;;;;;;5072619;28;20219;-60
2023/11/28 00:37:23;;;;;;;1.13;0.90;;;17.20;44.80;;;;;;5072868;28;20300;-61
2023/11/28 00:39:50;;;;;;;1.92;1.10;;;17.30;44.30;;;;;;5072846;28;20215;-60
2023/11/28 00:42:17;;;;;;;1.30;0.80;;;17.20;44.10;;;;;;5072496;28;20191;-58
2023/11/28 00:44:45;;;;;;;1.42;0.90;;;17.20;44.10;;;;;;5072862;28;20298;-61
2023/11/28 00:47:12;;;;;;;1.60;1.00;;;17.20;44.00;;;;;;5072643;28;20187;-61
2023/11/28 00:49:42;;;;;;;2.25;0.80;;;17.20;44.00;;;;;;5071989;28;20687;-61
2023/11/28 00:52:09;;;;;;;1.63;0.70;;;17.20;44.00;;;;;;5072635;28;20187;-60
2023/11/28 00:54:36;;;;;;;1.02;0.90;;;17.20;44.00;;;;;;5072845;28;20249;-61
2023/11/28 00:57:03;;;;;;;1.23;0.60;;;17.20;43.90;;;;;;5071977;28;20641;-60
2023/11/28 00:59:31;;;;;;;0.75;0.70;;;17.20;43.90;;;;;;5072839;28;20233;-58
2023/11/28 01:02:00;;;;;;;1.25;0.90;;;17.20;44.50;;;;;;5072463;28;20540;-61
2023/11/28 01:04:27;;;;;;;0.75;0.70;;;17.20;43.90;;;;;;5072191;28;20233;-61
2023/11/28 01:06:54;;;;;;;1.30;1.02;;;17.20;43.90;;;;;;5072434;28;20187;-61
2023/11/28 01:09:21;;;;;;;1.75;0.82;;;17.10;43.80;;;;;;5072138;28;20230;-61
2023/11/28 01:11:47;;;;;;;1.15;0.93;;;17.10;44.40;;;;;;5071741;28;20700;-57
2023/11/28 01:14:14;;;;;;;3.63;0.80;;;17.10;43.80;;;;;;5071913;28;20205;-59
2023/11/28 01:16:41;;;;;;;3.15;1.00;;;17.20;44.50;;;;;;5072271;28;20265;-59
2023/11/28 01:19:10;;;;;;;2.47;1.00;;;17.10;43.80;;;;;;5071941;28;20273;-60
2023/11/28 01:21:37;;;;;;;3.13;1.00;;;17.20;43.80;;;;;;5072301;28;20600;-61
2023/11/28 01:24:04;;;;;;;1.73;0.93;;;17.10;44.50;;;;;;5072410;28;20194;-60
2023/11/28 01:26:31;;;;;;;2.47;0.85;;;17.10;44.40;;;;;;5072101;28;20228;-55
2023/11/28 01:28:58;;;;;;;1.95;0.90;;;17.10;43.80;;;;;;5072166;28;20297;-60
2023/11/28 01:31:27;;;;;;;0.90;0.80;;;17.10;43.80;;;;;;5072356;28;20299;-58
2023/11/28 01:33:54;;;;;;;5.18;1.60;;;17.10;43.80;;;;;;5071580;28;20199;-62
2023/11/28 01:36:23;;;;;;;2.38;1.33;;;17.10;44.40;;;;;;5072118;28;20232;-61
2023/11/28 01:38:50;;;;;;;1.48;0.95;;;17.10;43.80;;;;;;5071874;28;20230;-61
2023/11/28 01:41:17;;;;;;;1.23;0.98;;;17.10;44.50;;;;;;5071924;28;20218;-60
2023/11/28 01:43:43;;;;;;;2.22;1.10;;;17.10;43.80;;;;;;5072233;28;20189;-62
2023/11/28 01:46:12;;;;;;;1.55;1.10;;;17.10;43.90;;;;;;5072173;28;20222;-61
2023/11/28 01:48:40;;;;;;;3.28;1.20;;;17.10;43.90;;;;;;5071601;28;20222;-60
2023/11/28 01:51:08;;;;;;;1.00;0.98;;;17.10;43.90;;;;;;5071985;28;20211;-61
2023/11/28 01:53:37;;;;;;;2.28;1.23;;;17.10;43.90;;;;;;5072059;28;20197;-61
2023/11/28 01:56:05;;;;;;;2.65;0.93;;;17.10;44.50;;;;;;5071622;28;20218;-61
2023/11/28 01:58:32;;;;;;;2.60;1.25;;;17.10;43.90;;;;;;5072012;28;20199;-61
2023/11/28 02:01:00;;;;;;;2.05;1.10;;;17.10;43.90;;;;;;5071742;28;20222;-61
2023/11/28 02:03:27;;;;;;;1.60;1.08;;;17.10;43.90;;;;;;5071366;28;20282;-60
2023/11/28 02:05:54;;;;;;;2.60;1.35;;;17.10;43.90;;;;;;5071579;28;20222;-61
2023/11/28 02:08:21;;;;;;;1.70;1.27;;;17.10;44.00;;;;;;5072000;28;20313;-60
2023/11/28 02:10:49;;;;;;;1.50;1.00;;;17.00;43.90;;;;;;5071095;28;20219;-61
2023/11/28 02:13:17;;;;;;;3.00;1.08;;;17.10;44.70;;;;;;5071817;28;20194;-62
2023/11/28 02:15:45;;;;;;;2.05;1.15;;;17.00;44.00;;;;;;5071737;28;20222;-62
2023/11/28 02:18:13;;;;;;;2.83;1.13;;;17.00;44.00;;;;;;5071444;28;20195;-60
2023/11/28 02:20:41;;;;;;;3.08;1.17;;;17.00;44.70;;;;;;5071716;28;20237;-61
2023/11/28 02:23:08;;;;;;;1.63;1.02;;;17.00;44.00;;;;;;5071407;28;20194;-61
2023/11/28 02:25:40;;;;;;;2.85;1.13;;;17.10;44.20;;;;;;5072936;28;20214;-60
2023/11/28 02:28:09;;;;;;;1.38;1.10;;;17.10;44.20;;;;;;5075083;28;20187;-60
2023/11/28 02:30:36;;;;;;;2.30;1.25;;;17.00;44.10;;;;;;5075295;28;20302;-61
2023/11/28 02:33:03;;;;;;;1.92;1.50;;;17.00;44.10;;;;;;5074648;28;20801;-58
2023/11/28 02:35:30;;;;;;;2.80;1.40;;;17.00;44.80;;;;;;5075111;28;20218;-60
2023/11/28 02:37:57;;;;;;;2.10;1.20;;;17.00;44.80;;;;;;5075226;28;20270;-61
2023/11/28 02:40:24;;;;;;;2.38;1.27;;;17.00;44.80;;;;;;5074845;28;20233;-60
2023/11/28 02:42:50;;;;;;;2.65;1.38;;;17.00;44.20;;;;;;5074865;28;20564;-59
2023/11/28 02:45:19;;;;;;;3.17;1.08;;;17.00;44.30;;;;;;5075018;28;20627;-61
2023/11/28 02:47:45;;;;;;;2.53;1.05;;;17.00;44.30;;;;;;5074598;28;20187;-62
2023/11/28 02:50:13;;;;;;;2.85;1.27;;;17.00;44.90;;;;;;5074470;28;20692;-60
2023/11/28 02:52:40;;;;;;;1.58;1.10;;;17.00;44.20;;;;;;5074606;28;20649;-61
2023/11/28 02:55:08;;;;;;;1.88;0.93;;;17.00;44.20;;;;;;5074515;28;20190;-60
2023/11/28 02:57:35;;;;;;;5.05;1.00;;;17.00;44.20;;;;;;5074656;28;20251;-61
2023/11/28 03:00:04;;;;;;;1.85;1.08;;;17.00;45.00;;;;;;5074824;28;20283;-62
2023/11/28 03:02:35;;;;;;;1.73;0.95;;;17.00;44.30;;;;;;5074583;28;20215;-58
2023/11/28 03:05:02;;;;;;;2.35;1.00;;;17.00;44.30;;;;;;5075001;28;20219;-61
2023/11/28 03:07:29;;;;;;;1.65;1.30;;;17.00;44.30;;;;;;5074620;28;20302;-59
2023/11/28 03:09:56;;;;;;;2.00;1.20;;;17.00;44.30;;;;;;5073911;28;20245;-61
2023/11/28 03:12:24;;;;;;;2.88;1.10;;;17.00;44.40;;;;;;5074714;28;20221;-60
2023/11/28 03:14:51;;;;;;;1.60;1.00;;;17.00;44.40;;;;;;5074578;28;20190;-55
2023/11/28 03:17:18;;;;;;;2.28;1.30;;;17.00;44.40;;;;;;5074059;28;20293;-57
2023/11/28 03:19:46;;;;;;;4.13;1.30;;;17.00;44.40;;;;;;5074760;28;20191;-61
2023/11/28 03:22:13;;;;;;;3.72;1.20;;;17.00;44.40;;;;;;5074231;28;20301;-61
2023/11/28 03:24:42;;;;;;;2.58;1.40;;;17.00;44.40;;;;;;5074032;28;20183;-59
2023/11/28 03:27:09;;;;;;;1.90;1.17;;;17.00;44.40;;;;;;5074223;28;20218;-60
2023/11/28 03:29:37;;;;;;;2.15;1.00;;;16.90;44.40;;;;;;5074192;28;20248;-58
2023/11/28 03:32:04;;;;;;;4.90;1.30;;;16.90;44.40;;;;;;5073834;28;20225;-58
2023/11/28 03:34:32;;;;;;;1.60;1.13;;;16.90;44.50;;;;;;5068156;28;20603;-58
2023/11/28 03:37:00;;;;;;;1.60;1.20;;;17.00;44.50;;;;;;5062173;28;20230;-61
2023/11/28 03:39:27;;;;;;;2.05;1.30;;;17.00;45.20;;;;;;5066764;28;20286;-62
2023/11/28 03:41:54;;;;;;;2.25;1.17;;;17.00;44.50;;;;;;5074103;28;20217;-58
2023/11/28 03:44:21;;;;;;;3.47;1.08;;;16.90;45.10;;;;;;5055344;28;20203;-59
2023/11/28 03:46:47;;;;;;;3.08;1.35;;;16.90;44.50;;;;;;5053578;28;20222;-60
2023/11/28 03:49:14;;;;;;;2.22;1.30;;;16.90;44.50;;;;;;5053861;28;20585;-60
2023/11/28 03:51:41;;;;;;;1.10;1.00;;;16.90;44.50;;;;;;5053821;28;20223;-61
2023/11/28 03:54:09;;;;;;;2.63;1.25;;;16.90;44.50;;;;;;5053737;28;20241;-60
2023/11/28 03:56:36;;;;;;;2.55;1.10;;;16.90;45.10;;;;;;5053337;28;20302;-60
2023/11/28 03:59:03;;;;;;;1.85;1.10;;;16.90;44.50;;;;;;5053732;28;20270;-61
2023/11/28 04:01:32;;;;;;;1.98;1.20;;;16.90;45.10;;;;;;5052150;28;20219;-59
2023/11/28 04:03:59;;;;;;;1.80;0.95;;;16.90;44.50;;;;;;5053278;28;20732;-60
2023/11/28 04:06:26;;;;;;;3.35;1.33;;;16.90;45.20;;;;;;5053448;28;20303;-60
2023/11/28 04:08:53;;;;;;;3.47;1.17;;;16.90;44.50;;;;;;5052764;28;20600;-58
2023/11/28 04:11:21;;;;;;;2.08;1.15;;;16.90;44.50;;;;;;5065737;28;20222;-58
2023/11/28 04:13:49;;;;;;;3.13;1.05;;;16.90;44.50;;;;;;5073570;28;20202;-61
2023/11/28 04:16:17;;;;;;;2.00;1.40;;;16.90;44.50;;;;;;5072910;28;20732;-61
2023/11/28 04:18:47;;;;;;;2.33;1.15;;;16.90;44.50;;;;;;5072732;28;20661;-60
2023/11/28 04:21:19;;;;;;;1.55;1.30;;;16.90;44.50;;;;;;5073095;28;20304;-61
2023/11/28 04:23:46;;;;;;;3.63;1.10;;;16.90;44.50;;;;;;5072598;28;20273;-61
2023/11/28 04:26:14;;;;;;;1.92;1.30;;;16.90;44.50;;;;;;5073056;28;20190;-61
2023/11/28 04:28:42;;;;;;;1.27;1.17;;;16.90;44.40;;;;;;5072694;28;20187;-59
2023/11/28 04:31:17;;;;;;;2.70;1.10;;;16.90;44.40;;;;;;5072398;28;20189;-62
2023/11/28 04:33:44;;;;;;;3.85;1.20;;;16.90;44.40;;;;;;5073062;28;20193;-61
2023/11/28 04:36:11;;;;;;;1.88;1.55;;;16.90;44.50;;;;;;5072949;28;20187;-60
2023/11/28 04:38:38;;;;;;;2.67;1.30;;;16.90;44.50;;;;;;5072223;28;20645;-61
2023/11/28 04:41:06;;;;;;;2.70;1.20;;;16.90;45.20;;;;;;5072881;28;20183;-61
2023/11/28 04:43:32;;;;;;;1.65;1.10;;;16.80;44.40;;;;;;5073006;28;20236;-58
2023/11/28 04:46:01;;;;;;;2.88;1.10;;;16.90;44.50;;;;;;5072460;28;20212;-55
2023/11/28 04:48:28;;;;;;;2.05;1.20;;;16.90;44.50;;;;;;5071926;28;20218;-60
2023/11/28 04:50:55;;;;;;;2.80;1.10;;;16.80;45.10;;;;;;5072475;28;20218;-59
2023/11/28 04:53:21;;;;;;;1.73;1.10;;;16.90;44.50;;;;;;5072658;28;20313;-61
2023/11/28 04:55:48;;;;;;;4.32;1.10;;;16.80;44.40;;;;;;5072858;28;20205;-59
2023/11/28 04:58:15;;;;;;;1.98;1.05;;;16.90;45.20;;;;;;5072739;28;20211;-58
2023/11/28 05:00:42;;;;;;;2.70;1.15;;;16.80;44.50;;;;;;5072449;28;20205;-61
2023/11/28 05:03:11;;;;;;;2.10;1.15;;;16.80;44.50;;;;;;5072517;28;20221;-61
2023/11/28 05:05:39;;;;;;;1.90;1.17;;;16.80;45.10;;;;;;5072501;28;20273;-58
2023/11/28 05:08:05;;;;;;;1.92;0.95;;;16.80;44.40;;;;;;5072181;28;20214;-61
2023/11/28 05:10:32;;;;;;;1.45;1.00;;;16.80;44.40;;;;;;5071717;28;20592;-61
2023/11/28 05:12:59;;;;;;;1.83;1.10;;;16.80;45.10;;;;;;5072333;28;20305;-59
2023/11/28 05:15:26;;;;;;;1.50;1.10;;;16.80;45.10;;;;;;5072335;28;20221;-60
2023/11/28 05:17:53;;;;;;;2.28;0.85;;;16.80;45.10;;;;;;5072018;28;20277;-60
2023/11/28 05:20:21;;;;;;;2.50;0.98;;;16.80;45.10;;;;;;5072233;28;20194;-60
2023/11/28 05:22:48;;;;;;;2.50;1.30;;;16.80;44.50;;;;;;5072294;28;20303;-59
2023/11/28 05:25:15;;;;;;;1.38;0.93;;;16.80;44.50;;;;;;5071935;28;20187;-61
2023/11/28 05:27:42;;;;;;;1.88;0.82;;;16.80;44.70;;;;;;5072328;28;20325;-54
2023/11/28 05:30:10;;;;;;;1.73;1.10;;;16.80;44.50;;;;;;5072200;28;20236;-60
2023/11/28 05:32:38;;;;;;;2.20;0.95;;;16.80;44.40;;;;;;5071778;28;20302;-61
2023/11/28 05:35:06;;;;;;;2.25;0.98;;;16.80;44.40;;;;;;5072138;28;20182;-58
2023/11/28 05:37:34;;;;;;;2.55;0.80;;;16.80;44.60;;;;;;5071850;28;20704;-58
2023/11/28 05:40:03;;;;;;;2.00;0.95;;;16.80;44.60;;;;;;5071794;28;20226;-58
2023/11/28 05:42:30;;;;;;;1.17;0.80;;;16.80;44.70;;;;;;5071821;28;20745;-58
2023/11/28 05:44:58;;;;;;;1.90;0.90;;;16.90;44.70;;;;;;5072121;28;20186;-61
2023/11/28 05:47:25;;;;;;;2.55;1.02;;;17.00;44.70;;;;;;5071725;28;20252;-60
2023/11/28 05:49:52;;;;;;;0.98;0.90;;;17.00;44.60;;;;;;5071981;28;20253;-62
2023/11/28 05:52:20;;;;;;;2.15;1.00;;;17.10;44.40;;;;;;5071554;28;20675;-59
2023/11/28 05:54:49;;;;;;;2.47;0.90;;;17.20;44.40;;;;;;5071750;28;20277;-60
2023/11/28 05:57:16;;;;;;;0.82;0.80;;;17.30;44.80;;;;;;5071560;28;20201;-57
2023/11/28 05:59:43;;;;;;;2.63;0.93;;;17.30;44.00;;;;;;5072250;28;20195;-60
2023/11/28 06:02:09;;;;;;;1.45;0.70;;;17.40;44.00;;;;;;5075587;28;20189;-61
2023/11/28 06:04:36;;;;;;;2.33;0.90;;;17.40;44.70;;;;;;5075744;28;20756;-58
2023/11/28 06:07:03;;;;;;;1.67;0.90;;;17.50;44.10;;;;;;5075812;28;20269;-59
2023/11/28 06:09:30;;;;;;;2.25;1.00;;;17.50;44.10;;;;;;5075327;28;20230;-61
2023/11/28 06:11:59;;;;;;;0.90;0.80;;;17.60;44.10;;;;;;5075371;28;20286;-58
2023/11/28 06:14:26;;;;;;;1.63;0.98;;;17.60;43.90;;;;;;5075831;28;20246;-59
2023/11/28 06:16:53;;;;;;;1.25;0.82;;;17.70;43.80;;;;;;5075176;28;20224;-61
2023/11/28 06:19:21;;;;;;;2.30;1.30;;;17.80;43.80;;;;;;5075777;28;20219;-60
2023/11/28 06:21:47;;;;;;;3.38;0.82;;;17.80;43.70;;;;;;5075356;28;20183;-61
2023/11/28 06:24:15;;;;;;;1.10;0.80;;;17.90;44.30;;;;;;5075309;28;20217;-60
2023/11/28 06:26:42;;;;;;;2.22;1.10;;;18.00;43.50;;;;;;5075407;28;20187;-61
2023/11/28 06:29:10;;;;;;;1.88;0.88;;;18.00;43.40;;;;;;5075419;28;20276;-61
2023/11/28 06:31:37;;;;;;;1.13;0.80;;;18.00;43.30;;;;;;5074954;28;20188;-61
2023/11/28 06:34:04;;;;;;;1.48;0.90;;;18.10;43.90;;;;;;5075360;28;20237;-60
2023/11/28 06:36:31;;;;;;;1.20;0.75;;;18.10;43.30;;;;;;5075282;28;20221;-60
2023/11/28 06:38:58;;;;;;;1.10;0.82;;;18.10;43.30;;;;;;5074888;28;20302;-61
2023/11/28 06:41:25;;;;;;;1.92;0.90;;;18.10;43.10;;;;;;5074805;28;20563;-60
2023/11/28 06:43:52;;;;;;;2.80;1.00;;;18.20;43.10;;;;;;5075167;28;20250;-59
2023/11/28 06:46:21;;;;;;;3.10;1.10;;;18.30;43.80;;;;;;5074749;28;20272;-62
2023/11/28 06:48:48;;;;;;;2.63;1.05;;;18.30;43.60;;;;;;5075016;28;20583;-55
2023/11/28 06:51:16;;;;;;;1.95;1.00;;;18.40;43.30;;;;;;5074873;28;20298;-59
2023/11/28 06:53:43;;;;;;;2.40;1.10;;;18.50;42.90;;;;;;5074504;28;20219;-60
2023/11/28 06:56:11;;;;;;;2.25;0.80;;;18.50;42.80;;;;;;5074961;28;20191;-61
2023/11/28 06:58:38;;;;;;;1.48;0.90;;;18.50;42.80;;;;;;5074371;28;20672;-61
2023/11/28 07:01:06;;;;;;;0.90;0.90;;;18.60;42.80;;;;;;5074439;28;20190;-59
2023/11/28 07:03:36;;;;;;;1.77;0.88;;;18.70;42.60;;;;;;5074770;28;20202;-59
2023/11/28 07:06:04;;;;;;;1.08;0.90;;;18.70;42.40;;;;;;5074651;28;20198;-60
2023/11/28 07:08:32;;;;;;;1.52;0.88;;;18.80;42.30;;;;;;5074460;28;20187;-59
2023/11/28 07:10:59;;;;;;;1.00;0.80;;;18.80;42.20;;;;;;5073654;28;20333;-61
2023/11/28 07:13:27;;;;;;;2.83;0.77;;;18.80;42.80;;;;;;5074120;28;20195;-62
2023/11/28 07:15:54;;;;;;;1.90;0.75;;;18.90;42.20;;;;;;5073929;28;20215;-56
2023/11/28 07:18:22;;;;;;;1.52;0.80;;;18.90;42.80;;;;;;5074452;28;20197;-62
2023/11/28 07:20:50;;;;;;;1.88;0.80;;;18.90;42.10;;;;;;5074545;28;20226;-62
2023/11/28 07:23:17;;;;;;;1.05;0.88;;;18.90;42.00;;;;;;5073743;28;20635;-61
2023/11/28 07:25:45;;;;;;;2.85;1.00;;;18.90;42.10;;;;;;5074539;28;20307;-62
2023/11/28 07:28:12;;;;;;;2.90;1.00;;;18.90;42.00;;;;;;5074244;28;20225;-60
2023/11/28 07:30:39;;;;;;;1.30;0.90;;;18.90;42.00;;;;;;5073674;28;20238;-62
2023/11/28 07:33:06;;;;;;;1.40;1.13;;;18.90;42.00;;;;;;5074311;28;20265;-60
2023/11/28 07:35:33;;;;;;;2.35;1.13;;;19.00;42.70;;;;;;5073713;28;20218;-60
2023/11/28 07:38:02;;;;;;;1.35;0.90;;;19.00;42.00;;;;;;5072199;28;20190;-61
2023/11/28 07:40:30;;;;;;;1.13;0.98;;;19.00;42.60;;;;;;5067515;28;20223;-61
2023/11/28 07:42:57;;;;;;;1.20;1.00;;;19.00;41.90;;;;;;5054221;28;20262;-61
2023/11/28 07:45:24;;;;;;;1.65;0.98;;;19.00;41.90;;;;;;5053063;28;20310;-61
2023/11/28 07:47:52;;;;;;;1.67;1.05;;;19.00;42.40;;;;;;5057796;28;20572;-61
2023/11/28 07:50:19;;;;;;;1.00;0.80;;;19.00;41.70;;;;;;5049531;28;20232;-61
2023/11/28 07:52:47;;;;;;;1.75;0.90;;;19.00;41.80;;;;;;5059808;28;20221;-60
2023/11/28 07:55:16;;;;;;;2.30;1.20;;;19.00;41.70;;;;;;5066733;28;20222;-61
2023/11/28 07:57:44;;;;;;;1.90;1.00;;;19.00;41.70;;;;;;5062543;28;20186;-61
2023/11/28 08:00:13;;;;;;;2.00;1.25;;;19.00;41.70;;;;;;5069177;28;20219;-61
2023/11/28 08:02:41;;;;;;;1.30;0.93;;;19.00;41.80;;;;;;5061248;28;20200;-58
2023/11/28 08:05:08;;;;;;;1.50;0.98;;;19.00;41.80;;;;;;5052668;28;20603;-60
2023/11/28 08:07:35;;;;;;;2.00;1.05;;;19.00;41.70;;;;;;5058077;28;20206;-61
2023/11/28 08:10:05;;;;;;;2.10;0.98;;;19.00;42.50;;;;;;5062917;28;20234;-60
2023/11/28 08:12:33;;;;;;;2.30;0.95;;;19.00;41.80;;;;;;5067996;28;20740;-60
2023/11/28 08:15:00;;;;;;;2.10;0.80;;;19.00;41.90;;;;;;5065831;28;20225;-61
2023/11/28 08:17:27;;;;;;;4.50;1.08;;;19.00;41.90;;;;;;5067353;28;20229;-58
2023/11/28 08:19:54;;;;;;;2.63;1.00;;;19.00;41.70;;;;;;5067859;28;20222;-59
2023/11/28 08:22:22;;;;;;;3.28;1.08;;;19.00;41.70;;;;;;5066069;28;20201;-60
2023/11/28 08:24:49;;;;;;;2.67;0.98;;;19.00;41.60;;;;;;5051853;28;20752;-59
2023/11/28 08:27:18;;;;;;;2.13;0.95;;;19.00;41.60;;;;;;5060302;28;20199;-61
2023/11/28 08:29:47;;;;;;;1.50;1.00;;;19.10;41.60;;;;;;5064199;28;20270;-60
2023/11/28 08:32:14;;;;;;;2.25;1.05;;;19.10;41.50;;;;;;5051795;28;20199;-60
2023/11/28 08:34:41;;;;;;;1.45;1.00;;;19.10;41.50;;;;;;5065799;28;20681;-59
2023/11/28 08:37:08;;;;;;;1.00;0.80;;;19.10;41.40;;;;;;5068145;28;20202;-61
2023/11/28 08:39:35;;;;;;;3.28;1.20;;;19.10;41.40;;;;;;5067926;28;20195;-60
2023/11/28 08:42:02;;;;;;;1.73;1.00;;;19.10;41.20;;;;;;5068312;28;20274;-60
2023/11/28 08:44:29;;;;;;;4.53;0.95;;;19.20;41.30;;;;;;5071770;28;20198;-61
2023/11/28 08:46:57;;;;;;;1.48;0.90;;;19.20;42.00;;;;;;5067726;28;20254;-61
2023/11/28 08:49:24;;;;;;;1.70;0.90;;;19.20;41.80;;;;;;5076191;28;20327;-61
2023/11/28 08:51:53;;;;;;;3.60;1.08;;;19.20;41.20;;;;;;5087543;28;20747;-62
2023/11/28 08:54:19;;;;;;;1.23;1.00;;;19.20;41.10;;;;;;5074204;28;20576;-62
2023/11/28 08:56:46;;;;;;;1.67;1.00;;;19.10;41.70;;;;;;5067935;28;20222;-58
2023/11/28 08:59:13;;;;;;;3.53;1.30;;;19.20;41.80;;;;;;5066924;28;20194;-61
2023/11/28 09:01:40;;;;;;;2.60;0.90;;;19.20;41.20;;;;;;5068039;28;20322;-60
2023/11/28 09:04:08;;;;;;;1.67;1.10;;;19.20;41.20;;;;;;5067593;28;20195;-62
2023/11/28 09:06:35;;;;;;;1.63;1.10;;;19.20;41.20;;;;;;5067739;28;20312;-60
2023/11/28 09:09:02;;;;;;;1.23;1.13;;;19.20;41.20;;;;;;5070595;28;20592;-61
2023/11/28 09:11:29;;;;;;;1.45;1.00;;;19.20;41.20;;;;;;5073175;28;20236;-57
2023/11/28 09:13:56;;;;;;;1.67;0.95;;;19.20;41.10;;;;;;5067646;28;20206;-61
2023/11/28 09:16:23;;;;;;;2.08;1.13;;;19.20;41.20;;;;;;5067662;28;20255;-61
2023/11/28 09:18:50;;;;;;;1.48;0.95;;;19.20;41.20;;;;;;5068156;28;20190;-60
2023/11/28 09:21:18;;;;;;;1.52;0.90;;;19.20;41.20;;;;;;5067813;28;20218;-61
2023/11/28 09:23:45;;;;;;;3.00;1.17;;;19.20;41.10;;;;;;5066788;28;20191;-57
2023/11/28 09:26:12;;;;;;;1.70;1.10;;;19.20;41.20;;;;;;5064867;28;20288;-61
2023/11/28 09:28:39;;;;;;;1.08;0.75;;;19.20;41.20;;;;;;5061982;28;20210;-61
2023/11/28 09:31:07;;;;;;;3.75;1.23;;;19.20;41.20;;;;;;5063469;28;20722;-59
2023/11/28 09:33:34;;;;;;;2.15;1.30;;;19.20;41.20;;;;;;5066570;28;20683;-61
2023/11/28 09:36:01;;;;;;;3.92;1.20;;;19.20;41.20;;;;;;5066723;28;20245;-59
2023/11/28 09:38:31;;;;;;;1.38;1.13;;;19.30;41.20;;;;;;5067994;28;20191;-61
2023/11/28 09:40:58;;;;;;;1.30;0.80;;;19.30;41.20;;;;;;5055876;28;20223;-61
2023/11/28 09:43:26;;;;;;;4.22;1.33;;;19.30;41.10;;;;;;5066324;28;20680;-61
2023/11/28 09:45:56;;;;;;;1.48;0.85;;;19.30;41.00;;;;;;5056802;28;20195;-62
2023/11/28 09:48:26;;;;;;;1.90;1.13;;;19.30;41.10;;;;;;5056181;28;20207;-62
2023/11/28 09:50:54;;;;;;;1.20;1.00;;;19.30;41.10;;;;;;5056346;28;20722;-60
2023/11/28 09:53:23;;;;;;;2.53;1.05;;;19.30;41.10;;;;;;5055733;28;20881;-61
2023/11/28 09:55:53;;;;;;;3.30;1.00;;;19.30;41.10;;;;;;5064671;28;20304;-62
2023/11/28 09:58:21;;;;;;;1.77;1.00;;;19.30;41.80;;;;;;5053882;28;20664;-61
2023/11/28 10:00:49;;;;;;;3.00;1.20;;;19.40;41.20;;;;;;5066876;28;20199;-61
2023/11/28 10:03:16;;;;;;;2.58;1.10;;;19.40;41.20;;;;;;5061656;28;20199;-60
2023/11/28 10:05:43;;;;;;;2.80;1.05;;;19.50;41.00;;;;;;5062852;28;20278;-61
2023/11/28 10:08:11;;;;;;;5.63;1.30;;;19.50;41.00;;;;;;5065104;28;20718;-61
2023/11/28 10:10:41;;;;;;;2.35;1.13;;;19.50;41.60;;;;;;5066019;28;20322;-61
2023/11/28 10:13:11;;;;;;;4.95;1.20;;;19.60;41.70;;;;;;5062283;28;20306;-58
2023/11/28 10:15:42;;;;;;;4.35;1.27;;;19.60;41.10;;;;;;5055284;28;20202;-61
2023/11/28 10:18:09;;;;;;;2.15;1.10;;;19.60;41.00;;;;;;5051990;28;20227;-62
2023/11/28 10:20:39;;;;;;;2.20;0.98;;;19.60;41.10;;;;;;5064757;28;20221;-61
2023/11/28 10:23:06;;;;;;;3.97;1.50;;;19.60;41.00;;;;;;5057590;28;20223;-62
2023/11/28 10:25:33;;;;;;;2.15;1.20;;;19.70;41.70;;;;;;5052576;28;20279;-57
2023/11/28 10:28:01;;;;;;;2.35;1.10;;;19.70;41.10;;;;;;5047471;28;20272;-56
2023/11/28 10:30:30;;;;;;;2.60;1.10;;;19.70;41.10;;;;;;5057952;28;20231;-57
2023/11/28 10:33:00;;;;;;;2.45;1.10;;;19.70;41.10;;;;;;5047408;28;20225;-59
2023/11/28 10:35:43;;;;;;;3.15;1.13;;;19.80;41.20;;;;;;5054030;28;20695;-60
2023/11/28 10:38:15;;;;;;;4.10;1.17;;;19.80;41.10;;;;;;5044732;28;20596;-61
2023/11/28 10:40:44;;;;;;;2.08;1.10;;;19.80;41.10;;;;;;5054699;28;20198;-58
2023/11/28 10:43:11;;;;;;;5.28;1.10;;;19.80;41.00;;;;;;5059244;28;20215;-59
2023/11/28 10:45:42;;;;;;;1.60;1.00;;;19.80;40.90;;;;;;5055983;28;20206;-59
2023/11/28 10:48:09;;;;;;;1.75;0.90;;;19.80;41.00;;;;;;5060627;28;20227;-56
2023/11/28 10:50:36;;;;;;;1.98;1.02;;;19.80;41.00;;;;;;5057085;28;20277;-60
2023/11/28 10:53:04;;;;;;;2.80;1.30;;;19.80;41.10;;;;;;5056863;28;20257;-59
2023/11/28 10:55:37;;;;;;;4.07;1.30;;;19.80;41.20;;;;;;5063099;28;20656;-60
2023/11/28 10:58:06;;;;;;;2.97;1.63;;;19.80;41.70;;;;;;5069837;28;20250;-60
2023/11/28 11:00:37;;;;;;;2.20;1.00;;;19.80;41.00;;;;;;5079541;28;20212;-60
2023/11/28 11:03:07;;;;;;;5.65;0.90;;;19.90;41.80;;;;;;5068500;28;20289;-59
2023/11/28 11:05:35;;;;;;;3.90;1.08;;;19.90;41.10;;;;;;5060290;28;20201;-60
2023/11/28 11:08:03;;;;;;;2.33;1.10;;;19.90;41.70;;;;;;5056836;28;20218;-60
2023/11/28 11:10:31;;;;;;;1.63;1.05;;;19.90;41.00;;;;;;5064811;28;20581;-55
2023/11/28 11:13:05;;;;;;;2.42;0.98;;;19.90;40.90;;;;;;5059630;28;20906;-61
2023/11/28 11:15:39;;;;;;;3.85;1.10;;;19.90;40.90;;;;;;5063111;28;20186;-59
2023/11/28 11:18:16;;;;;;;2.17;1.10;;;19.90;41.70;;;;;;5055089;28;20322;-60
2023/11/28 11:20:49;;;;;;;2.30;1.25;;;19.90;41.00;;;;;;5054543;28;20199;-60
2023/11/28 11:23:18;;;;;;;1.73;1.08;;;19.90;41.00;;;;;;5048520;28;20241;-58
2023/11/28 11:25:51;;;;;;;1.60;1.02;;;19.90;41.10;;;;;;5058452;28;20289;-59
2023/11/28 11:28:18;;;;;;;2.17;1.25;;;19.90;41.20;;;;;;5069708;28;20261;-60
2023/11/28 11:30:46;;;;;;;1.70;1.00;;;19.90;41.00;;;;;;5079630;28;20264;-58
2023/11/28 11:33:16;;;;;;;3.80;1.05;;;19.90;41.00;;;;;;5089680;28;20264;-61
2023/11/28 11:36:03;;;;;;;1.63;1.15;;;19.90;41.00;;;;;;5081602;28;20829;-60
2023/11/28 11:38:30;;;;;;;2.55;1.10;;;19.90;41.00;;;;;;5069372;28;20232;-60
2023/11/28 11:40:58;;;;;;;4.15;0.95;;;19.80;41.70;;;;;;5061533;28;20204;-59
2023/11/28 11:43:28;;;;;;;1.75;1.05;;;19.80;41.00;;;;;;5058948;28;20240;-58
2023/11/28 11:46:05;;;;;;;3.65;1.17;;;19.80;41.00;;;;;;5078926;28;20194;-60
2023/11/28 11:48:35;;;;;;;2.75;1.05;;;19.80;41.00;;;;;;5088302;28;20243;-60
2023/11/28 11:51:01;;;;;;;3.22;0.85;;;19.80;41.00;;;;;;5084734;28;20200;-61
2023/11/28 11:53:29;;;;;;;1.98;1.15;;;19.80;41.00;;;;;;5088707;28;20221;-58
2023/11/28 11:56:00;;;;;;;2.60;1.10;;;19.80;40.90;;;;;;5087886;28;20240;-57
2023/11/28 11:58:28;;;;;;;2.08;1.20;;;19.80;40.90;;;;;;5088868;28;20275;-51
2023/11/28 12:00:55;;;;;;;2.10;1.08;;;19.80;40.90;;;;;;5089018;28;20205;-59
2023/11/28 12:03:22;;;;;;;3.13;1.33;;;19.80;40.90;;;;;;5089008;28;20213;-60
2023/11/28 12:05:57;;;;;;;2.05;0.82;;;19.80;41.00;;;;;;5083474;28;20187;-61
2023/11/28 12:08:24;;;;;;;3.03;1.08;;;19.80;40.90;;;;;;5068640;28;20217;-60
2023/11/28 12:10:55;;;;;;;1.27;0.85;;;19.80;41.00;;;;;;5067367;28;20225;-60
2023/11/28 12:13:22;;;;;;;2.35;1.17;;;19.80;41.00;;;;;;5069006;28;20223;-60
2023/11/28 12:15:49;;;;;;;3.60;1.30;;;19.80;40.90;;;;;;5068264;28;20555;-60
2023/11/28 12:18:16;;;;;;;1.27;1.15;;;19.80;40.80;;;;;;5068740;28;20218;-59
2023/11/28 12:20:44;;;;;;;2.72;1.00;;;19.80;40.90;;;;;;5068763;28;20209;-60
2023/11/28 12:23:12;;;;;;;3.10;1.35;;;19.80;41.50;;;;;;5068263;28;20187;-61
2023/11/28 12:25:39;;;;;;;1.75;0.90;;;19.90;40.80;;;;;;5068147;28;20194;-59
2023/11/28 12:28:05;;;;;;;3.10;1.20;;;19.90;40.80;;;;;;5068102;28;20575;-58
2023/11/28 12:30:32;;;;;;;1.98;1.00;;;19.90;40.80;;;;;;5068437;28;20194;-59
2023/11/28 12:33:00;;;;;;;2.08;1.20;;;19.90;40.80;;;;;;5068126;28;20222;-60
2023/11/28 12:35:28;;;;;;;2.45;1.25;;;19.90;40.90;;;;;;5068441;28;20198;-57
2023/11/28 12:37:57;;;;;;;2.47;1.08;;;19.90;40.80;;;;;;5068293;28;20206;-60
2023/11/28 12:40:25;;;;;;;1.50;0.70;;;19.90;41.50;;;;;;5068083;28;20201;-61
2023/11/28 12:42:53;;;;;;;4.63;1.05;;;19.90;41.40;;;;;;5067633;28;20222;-62
2023/11/28 12:45:23;;;;;;;2.35;0.82;;;19.90;41.00;;;;;;5070776;28;20218;-60
2023/11/28 12:47:50;;;;;;;1.85;1.02;;;19.90;41.10;;;;;;5088302;28;20243;-61
2023/11/28 12:50:17;;;;;;;1.65;0.90;;;19.90;41.30;;;;;;5088110;28;20301;-61